sensor_id;sensor_type;location;lat;lon;timestamp;temperature;humidity
23729;DHT22;12045;60.214;24.724;2022-09-12T00:01:14;7.70;99.90
23729;DHT22;12045;60.214;24.724;2022-09-12T00:03:42;7.60;99.90
23729;DHT22;12045;60.214;24.724;2022-09-12T00:06:22;7.60;99.90
23729;DHT22;12045;60.214;24.724;2022-09-12T00:08:52;7.50;99.90
23729;DHT22;12045;60.214;24.724;2022-09-12T00:11:20;7.50;99.90
23729;DHT22;12045;60.214;24.724;2022-09-12T00:13:48;7.50;99.90
23729;DHT22;12045;60.214;24.724;2022-09-12T00:16:18;7.50;99.90
23729;DHT22;12045;60.214;24.724;2022-09-12T00:18:47;7.40;99.90
23729;DHT22;12045;60.214;24.724;2022-09-12T00:21:16;7.40;99.90
23729;DHT22;12045;60.214;24.724;2022-09-12T00:23:44;7.40;99.90
23729;DHT22;12045;60.214;24.724;2022-09-12T00:26:12;7.30;99.90
23729;DHT22;12045;60.214;24.724;2022-09-12T00:28:41;7.30;99.90
23729;DHT22;12045;60.214;24.724;2022-09-12T00:31:12;6.40;99.90
23729;DHT22;12045;60.214;24.724;2022-09-12T00:33:40;7.20;99.90
23729;DHT22;12045;60.214;24.724;2022-09-12T00:36:14;7.80;99.90
23729;DHT22;12045;60.214;24.724;2022-09-12T00:38:43;7.20;99.90
23729;DHT22;12045;60.214;24.724;2022-09-12T00:43:45;7.20;99.90
23729;DHT22;12045;60.214;24.724;2022-09-12T00:48:49;7.20;99.90
23729;DHT22;12045;60.214;24.724;2022-09-12T00:51:18;7.20;99.90
23729;DHT22;12045;60.214;24.724;2022-09-12T00:53:49;6.70;99.90
23729;DHT22;12045;60.214;24.724;2022-09-12T00:56:18;6.50;99.90
23729;DHT22;12045;60.214;24.724;2022-09-12T00:59:01;7.80;99.90
23729;DHT22;12045;60.214;24.724;2022-09-12T01:01:29;7.20;99.90
23729;DHT22;12045;60.214;24.724;2022-09-12T01:04:00;7.20;99.90
23729;DHT22;12045;60.214;24.724;2022-09-12T01:06:33;8.10;99.90
23729;DHT22;12045;60.214;24.724;2022-09-12T01:09:03;8.10;99.90
23729;DHT22;12045;60.214;24.724;2022-09-12T01:11:33;7.10;99.90
23729;DHT22;12045;60.214;24.724;2022-09-12T01:14:05;7.00;99.90
23729;DHT22;12045;60.214;24.724;2022-09-12T01:16:37;7.00;99.90
23729;DHT22;12045;60.214;24.724;2022-09-12T01:30:57;7.10;99.90
23729;DHT22;12045;60.214;24.724;2022-09-12T01:34:06;5.90;99.90
23729;DHT22;12045;60.214;24.724;2022-09-12T01:37:20;7.10;99.90
23729;DHT22;12045;60.214;24.724;2022-09-12T01:43:12;7.00;99.90
23729;DHT22;12045;60.214;24.724;2022-09-12T01:45:57;7.00;99.90
23729;DHT22;12045;60.214;24.724;2022-09-12T01:51:50;7.00;99.90
23729;DHT22;12045;60.214;24.724;2022-09-12T01:54:44;7.10;99.90
23729;DHT22;12045;60.214;24.724;2022-09-12T01:57:19;7.60;99.90
23729;DHT22;12045;60.214;24.724;2022-09-12T01:59:51;7.10;99.90
23729;DHT22;12045;60.214;24.724;2022-09-12T02:02:34;7.70;99.90
23729;DHT22;12045;60.214;24.724;2022-09-12T02:05:12;7.00;99.90
23729;DHT22;12045;60.214;24.724;2022-09-12T02:07:54;7.20;99.90
23729;DHT22;12045;60.214;24.724;2022-09-12T02:10:28;7.10;99.90
23729;DHT22;12045;60.214;24.724;2022-09-12T02:13:07;7.00;99.90
23729;DHT22;12045;60.214;24.724;2022-09-12T02:15:43;7.00;99.90
23729;DHT22;12045;60.214;24.724;2022-09-12T02:18:15;7.10;99.90
23729;DHT22;12045;60.214;24.724;2022-09-12T02:20:46;7.10;99.90
23729;DHT22;12045;60.214;24.724;2022-09-12T02:23:28;7.90;99.90
23729;DHT22;12045;60.214;24.724;2022-09-12T02:26:03;5.70;99.90
23729;DHT22;12045;60.214;24.724;2022-09-12T02:28:37;7.00;99.90
23729;DHT22;12045;60.214;24.724;2022-09-12T02:34:24;7.00;99.90
23729;DHT22;12045;60.214;24.724;2022-09-12T02:39:40;7.00;99.90
23729;DHT22;12045;60.214;24.724;2022-09-12T02:42:13;7.00;99.90
23729;DHT22;12045;60.214;24.724;2022-09-12T02:44:41;7.00;99.90
23729;DHT22;12045;60.214;24.724;2022-09-12T02:47:24;7.00;99.90
23729;DHT22;12045;60.214;24.724;2022-09-12T02:49:53;6.90;99.90
23729;DHT22;12045;60.214;24.724;2022-09-12T02:52:21;6.90;99.90
23729;DHT22;12045;60.214;24.724;2022-09-12T02:54:49;7.00;99.90
23729;DHT22;12045;60.214;24.724;2022-09-12T02:57:20;7.00;99.90
23729;DHT22;12045;60.214;24.724;2022-09-12T02:59:52;6.90;99.90
23729;DHT22;12045;60.214;24.724;2022-09-12T03:05:03;7.90;99.90
23729;DHT22;12045;60.214;24.724;2022-09-12T03:16:08;6.70;99.90
23729;DHT22;12045;60.214;24.724;2022-09-12T03:21:59;7.10;99.90
23729;DHT22;12045;60.214;24.724;2022-09-12T03:24:33;7.10;99.90
23729;DHT22;12045;60.214;24.724;2022-09-12T03:27:12;7.10;99.90
23729;DHT22;12045;60.214;24.724;2022-09-12T03:29:43;7.10;99.90
23729;DHT22;12045;60.214;24.724;2022-09-12T03:32:13;7.20;99.90
23729;DHT22;12045;60.214;24.724;2022-09-12T03:34:40;7.10;99.90
23729;DHT22;12045;60.214;24.724;2022-09-12T03:37:08;7.10;99.90
23729;DHT22;12045;60.214;24.724;2022-09-12T03:39:35;7.10;99.90
23729;DHT22;12045;60.214;24.724;2022-09-12T03:42:03;7.00;99.90
23729;DHT22;12045;60.214;24.724;2022-09-12T03:44:30;7.00;99.90
23729;DHT22;12045;60.214;24.724;2022-09-12T03:46:58;7.60;99.90
23729;DHT22;12045;60.214;24.724;2022-09-12T03:49:25;7.80;99.90
23729;DHT22;12045;60.214;24.724;2022-09-12T03:51:53;6.90;99.90
23729;DHT22;12045;60.214;24.724;2022-09-12T03:54:20;6.90;99.90
23729;DHT22;12045;60.214;24.724;2022-09-12T03:56:48;6.90;99.90
23729;DHT22;12045;60.214;24.724;2022-09-12T03:59:15;6.80;99.90
23729;DHT22;12045;60.214;24.724;2022-09-12T04:01:43;6.80;99.90
23729;DHT22;12045;60.214;24.724;2022-09-12T04:04:10;6.80;99.90
23729;DHT22;12045;60.214;24.724;2022-09-12T04:06:38;6.80;99.90
23729;DHT22;12045;60.214;24.724;2022-09-12T04:09:05;6.80;99.90
23729;DHT22;12045;60.214;24.724;2022-09-12T04:11:32;6.90;99.90
23729;DHT22;12045;60.214;24.724;2022-09-12T04:14:01;7.30;99.90
23729;DHT22;12045;60.214;24.724;2022-09-12T04:16:29;7.00;99.90
23729;DHT22;12045;60.214;24.724;2022-09-12T04:18:56;6.90;99.90
23729;DHT22;12045;60.214;24.724;2022-09-12T04:21:25;6.90;99.90
23729;DHT22;12045;60.214;24.724;2022-09-12T04:23:52;6.90;99.90
23729;DHT22;12045;60.214;24.724;2022-09-12T04:26:20;6.90;99.90
23729;DHT22;12045;60.214;24.724;2022-09-12T04:28:51;6.90;99.90
23729;DHT22;12045;60.214;24.724;2022-09-12T04:31:19;6.90;99.90
23729;DHT22;12045;60.214;24.724;2022-09-12T04:33:57;6.90;99.90
23729;DHT22;12045;60.214;24.724;2022-09-12T04:36:25;6.90;99.90
23729;DHT22;12045;60.214;24.724;2022-09-12T04:38:53;7.00;99.90
23729;DHT22;12045;60.214;24.724;2022-09-12T04:41:23;7.50;99.90
23729;DHT22;12045;60.214;24.724;2022-09-12T04:43:56;7.00;99.90
23729;DHT22;12045;60.214;24.724;2022-09-12T04:46:25;7.00;99.90
23729;DHT22;12045;60.214;24.724;2022-09-12T04:48:53;7.10;99.90
23729;DHT22;12045;60.214;24.724;2022-09-12T04:51:34;7.10;99.90
23729;DHT22;12045;60.214;24.724;2022-09-12T04:54:05;7.10;99.90
23729;DHT22;12045;60.214;24.724;2022-09-12T04:56:37;7.10;99.90
23729;DHT22;12045;60.214;24.724;2022-09-12T04:59:06;7.10;99.90
23729;DHT22;12045;60.214;24.724;2022-09-12T05:01:35;7.20;99.90
23729;DHT22;12045;60.214;24.724;2022-09-12T05:04:04;7.20;99.90
23729;DHT22;12045;60.214;24.724;2022-09-12T05:06:44;7.20;99.90
23729;DHT22;12045;60.214;24.724;2022-09-12T05:09:30;7.40;99.90
23729;DHT22;12045;60.214;24.724;2022-09-12T05:12:03;8.50;99.90
23729;DHT22;12045;60.214;24.724;2022-09-12T05:14:33;7.40;99.90
23729;DHT22;12045;60.214;24.724;2022-09-12T05:17:06;7.40;99.90
23729;DHT22;12045;60.214;24.724;2022-09-12T05:19:53;7.50;99.90
23729;DHT22;12045;60.214;24.724;2022-09-12T05:22:23;7.70;99.90
23729;DHT22;12045;60.214;24.724;2022-09-12T05:24:52;7.40;99.90
23729;DHT22;12045;60.214;24.724;2022-09-12T05:27:20;7.60;99.90
23729;DHT22;12045;60.214;24.724;2022-09-12T05:29:49;7.60;99.90
23729;DHT22;12045;60.214;24.724;2022-09-12T05:32:51;6.20;99.90
23729;DHT22;12045;60.214;24.724;2022-09-12T05:35:22;7.20;99.90
23729;DHT22;12045;60.214;24.724;2022-09-12T05:37:52;7.90;99.90
23729;DHT22;12045;60.214;24.724;2022-09-12T05:40:20;7.90;99.90
23729;DHT22;12045;60.214;24.724;2022-09-12T05:42:49;8.20;99.90
23729;DHT22;12045;60.214;24.724;2022-09-12T05:45:19;8.10;99.90
23729;DHT22;12045;60.214;24.724;2022-09-12T05:47:50;8.10;99.90
23729;DHT22;12045;60.214;24.724;2022-09-12T05:50:18;8.40;99.90
23729;DHT22;12045;60.214;24.724;2022-09-12T05:52:52;8.90;99.90
23729;DHT22;12045;60.214;24.724;2022-09-12T05:55:22;8.80;99.90
23729;DHT22;12045;60.214;24.724;2022-09-12T05:57:53;8.60;99.90
23729;DHT22;12045;60.214;24.724;2022-09-12T06:00:25;8.20;99.90
23729;DHT22;12045;60.214;24.724;2022-09-12T06:02:59;8.90;99.90
23729;DHT22;12045;60.214;24.724;2022-09-12T06:05:51;8.90;99.90
23729;DHT22;12045;60.214;24.724;2022-09-12T06:08:24;9.00;99.90
23729;DHT22;12045;60.214;24.724;2022-09-12T06:11:05;9.00;99.90
23729;DHT22;12045;60.214;24.724;2022-09-12T06:13:37;9.10;99.90
23729;DHT22;12045;60.214;24.724;2022-09-12T06:18:57;9.40;99.90
23729;DHT22;12045;60.214;24.724;2022-09-12T06:24:16;9.60;99.90
23729;DHT22;12045;60.214;24.724;2022-09-12T06:27:28;9.70;99.90
23729;DHT22;12045;60.214;24.724;2022-09-12T06:35:15;10.20;99.90
23729;DHT22;12045;60.214;24.724;2022-09-12T06:37:50;10.90;99.90
23729;DHT22;12045;60.214;24.724;2022-09-12T06:44:01;11.20;99.90
23729;DHT22;12045;60.214;24.724;2022-09-12T06:53:24;11.70;99.90
23729;DHT22;12045;60.214;24.724;2022-09-12T06:55:55;11.70;99.90
23729;DHT22;12045;60.214;24.724;2022-09-12T06:58:25;11.40;99.90
23729;DHT22;12045;60.214;24.724;2022-09-12T07:01:09;12.00;99.90
23729;DHT22;12045;60.214;24.724;2022-09-12T07:03:38;12.10;99.90
23729;DHT22;12045;60.214;24.724;2022-09-12T07:06:11;12.30;99.90
23729;DHT22;12045;60.214;24.724;2022-09-12T07:08:39;12.50;99.90
23729;DHT22;12045;60.214;24.724;2022-09-12T07:11:10;12.60;99.90
23729;DHT22;12045;60.214;24.724;2022-09-12T07:13:39;11.10;99.90
23729;DHT22;12045;60.214;24.724;2022-09-12T07:16:09;12.90;99.90
23729;DHT22;12045;60.214;24.724;2022-09-12T07:22:30;12.90;99.90
23729;DHT22;12045;60.214;24.724;2022-09-12T07:24:57;13.10;99.90
23729;DHT22;12045;60.214;24.724;2022-09-12T07:27:37;13.30;99.90
23729;DHT22;12045;60.214;24.724;2022-09-12T07:32:44;13.50;99.90
23729;DHT22;12045;60.214;24.724;2022-09-12T07:35:18;13.70;99.90
23729;DHT22;12045;60.214;24.724;2022-09-12T07:40:39;13.90;99.90
23729;DHT22;12045;60.214;24.724;2022-09-12T07:43:07;14.20;99.90
23729;DHT22;12045;60.214;24.724;2022-09-12T07:46:35;14.00;99.90
23729;DHT22;12045;60.214;24.724;2022-09-12T07:49:18;14.20;99.90
23729;DHT22;12045;60.214;24.724;2022-09-12T07:51:55;15.00;99.90
23729;DHT22;12045;60.214;24.724;2022-09-12T07:54:23;14.60;99.90
23729;DHT22;12045;60.214;24.724;2022-09-12T07:56:54;14.60;99.90
23729;DHT22;12045;60.214;24.724;2022-09-12T07:59:22;14.00;99.90
23729;DHT22;12045;60.214;24.724;2022-09-12T08:02:12;14.70;99.90
23729;DHT22;12045;60.214;24.724;2022-09-12T08:04:43;14.70;99.90
23729;DHT22;12045;60.214;24.724;2022-09-12T08:07:19;14.80;99.90
23729;DHT22;12045;60.214;24.724;2022-09-12T08:09:55;15.30;99.90
23729;DHT22;12045;60.214;24.724;2022-09-12T08:12:49;15.40;99.90
23729;DHT22;12045;60.214;24.724;2022-09-12T08:21:49;15.50;99.90
23729;DHT22;12045;60.214;24.724;2022-09-12T08:24:25;15.60;99.90
23729;DHT22;12045;60.214;24.724;2022-09-12T08:26:53;15.60;99.90
23729;DHT22;12045;60.214;24.724;2022-09-12T08:48:37;16.60;99.90
23729;DHT22;12045;60.214;24.724;2022-09-12T08:51:10;17.10;99.90
23729;DHT22;12045;60.214;24.724;2022-09-12T08:53:41;17.00;99.90
23729;DHT22;12045;60.214;24.724;2022-09-12T08:56:11;17.10;99.90
23729;DHT22;12045;60.214;24.724;2022-09-12T08:58:44;17.10;99.90
23729;DHT22;12045;60.214;24.724;2022-09-12T09:16:12;17.50;99.90
23729;DHT22;12045;60.214;24.724;2022-09-12T09:19:33;17.70;99.90
23729;DHT22;12045;60.214;24.724;2022-09-12T09:22:12;17.90;99.90
23729;DHT22;12045;60.214;24.724;2022-09-12T09:24:54;17.90;99.90
23729;DHT22;12045;60.214;24.724;2022-09-12T09:27:57;17.70;99.90
23729;DHT22;12045;60.214;24.724;2022-09-12T09:30:39;17.60;99.90
23729;DHT22;12045;60.214;24.724;2022-09-12T09:33:17;17.70;99.90
23729;DHT22;12045;60.214;24.724;2022-09-12T09:36:04;17.80;99.90
23729;DHT22;12045;60.214;24.724;2022-09-12T09:45:29;18.00;99.90
23729;DHT22;12045;60.214;24.724;2022-09-12T10:02:33;18.60;99.90
23729;DHT22;12045;60.214;24.724;2022-09-12T10:05:01;18.70;99.90
23729;DHT22;12045;60.214;24.724;2022-09-12T10:07:31;18.70;99.90
23729;DHT22;12045;60.214;24.724;2022-09-12T10:10:26;18.20;99.90
23729;DHT22;12045;60.214;24.724;2022-09-12T10:13:07;19.60;99.90
23729;DHT22;12045;60.214;24.724;2022-09-12T10:16:16;20.10;99.90
23729;DHT22;12045;60.214;24.724;2022-09-12T10:18:55;20.70;99.90
23729;DHT22;12045;60.214;24.724;2022-09-12T10:21:54;21.30;99.90
23729;DHT22;12045;60.214;24.724;2022-09-12T10:24:38;21.40;99.90
23729;DHT22;12045;60.214;24.724;2022-09-12T10:27:17;21.30;99.90
23729;DHT22;12045;60.214;24.724;2022-09-12T10:30:04;21.10;99.90
23729;DHT22;12045;60.214;24.724;2022-09-12T10:32:41;21.30;99.90
23729;DHT22;12045;60.214;24.724;2022-09-12T10:35:42;21.40;99.90
23729;DHT22;12045;60.214;24.724;2022-09-12T10:38:32;21.60;99.90
23729;DHT22;12045;60.214;24.724;2022-09-12T10:41:09;21.90;99.90
23729;DHT22;12045;60.214;24.724;2022-09-12T10:43:41;22.20;99.90
23729;DHT22;12045;60.214;24.724;2022-09-12T11:29:42;20.90;99.90
23729;DHT22;12045;60.214;24.724;2022-09-12T11:39:07;21.60;99.90
23729;DHT22;12045;60.214;24.724;2022-09-12T11:41:48;21.10;99.90
23729;DHT22;12045;60.214;24.724;2022-09-12T11:47:10;20.90;99.90
23729;DHT22;12045;60.214;24.724;2022-09-12T11:49:47;20.90;99.90
23729;DHT22;12045;60.214;24.724;2022-09-12T11:52:28;20.90;99.90
23729;DHT22;12045;60.214;24.724;2022-09-12T11:55:05;20.90;99.90
23729;DHT22;12045;60.214;24.724;2022-09-12T11:57:44;21.00;99.90
23729;DHT22;12045;60.214;24.724;2022-09-12T12:03:01;21.10;99.90
23729;DHT22;12045;60.214;24.724;2022-09-12T12:08:29;20.80;99.90
23729;DHT22;12045;60.214;24.724;2022-09-12T12:11:03;20.60;99.90
23729;DHT22;12045;60.214;24.724;2022-09-12T12:13:54;20.40;99.90
23729;DHT22;12045;60.214;24.724;2022-09-12T12:16:36;20.50;99.90
23729;DHT22;12045;60.214;24.724;2022-09-12T12:24:24;19.60;99.90
23729;DHT22;12045;60.214;24.724;2022-09-12T12:26:57;19.20;99.90
23729;DHT22;12045;60.214;24.724;2022-09-12T12:29:40;18.70;99.90
23729;DHT22;12045;60.214;24.724;2022-09-12T12:34:40;18.10;99.90
23729;DHT22;12045;60.214;24.724;2022-09-12T12:45:03;17.20;99.90
23729;DHT22;12045;60.214;24.724;2022-09-12T12:47:55;17.10;99.90
23729;DHT22;12045;60.214;24.724;2022-09-12T12:50:25;17.00;99.90
23729;DHT22;12045;60.214;24.724;2022-09-12T12:53:03;17.00;99.90
23729;DHT22;12045;60.214;24.724;2022-09-12T12:55:44;17.10;99.90
23729;DHT22;12045;60.214;24.724;2022-09-12T13:01:15;16.90;99.90
23729;DHT22;12045;60.214;24.724;2022-09-12T13:03:50;16.00;99.90
23729;DHT22;12045;60.214;24.724;2022-09-12T13:09:03;16.80;99.90
23729;DHT22;12045;60.214;24.724;2022-09-12T13:11:37;16.80;99.90
23729;DHT22;12045;60.214;24.724;2022-09-12T13:14:34;16.70;99.90
23729;DHT22;12045;60.214;24.724;2022-09-12T13:17:04;16.70;99.90
23729;DHT22;12045;60.214;24.724;2022-09-12T13:19:35;16.50;99.90
23729;DHT22;12045;60.214;24.724;2022-09-12T13:22:08;15.80;99.90
23729;DHT22;12045;60.214;24.724;2022-09-12T13:24:46;16.40;99.90
23729;DHT22;12045;60.214;24.724;2022-09-12T13:27:23;16.20;99.90
23729;DHT22;12045;60.214;24.724;2022-09-12T13:30:12;16.20;99.90
23729;DHT22;12045;60.214;24.724;2022-09-12T13:32:41;16.20;99.90
23729;DHT22;12045;60.214;24.724;2022-09-12T13:35:21;16.20;99.90
23729;DHT22;12045;60.214;24.724;2022-09-12T13:38:19;16.20;99.90
23729;DHT22;12045;60.214;24.724;2022-09-12T13:41:12;16.20;99.90
23729;DHT22;12045;60.214;24.724;2022-09-12T13:43:43;16.20;99.90
23729;DHT22;12045;60.214;24.724;2022-09-12T13:46:17;16.00;99.90
23729;DHT22;12045;60.214;24.724;2022-09-12T13:48:49;16.00;99.90
23729;DHT22;12045;60.214;24.724;2022-09-12T13:51:25;15.90;99.90
23729;DHT22;12045;60.214;24.724;2022-09-12T13:53:57;15.90;99.90
23729;DHT22;12045;60.214;24.724;2022-09-12T13:56:26;15.80;99.90
23729;DHT22;12045;60.214;24.724;2022-09-12T13:59:01;15.80;99.90
23729;DHT22;12045;60.214;24.724;2022-09-12T14:01:40;15.80;99.90
23729;DHT22;12045;60.214;24.724;2022-09-12T14:04:16;15.80;99.90
23729;DHT22;12045;60.214;24.724;2022-09-12T14:07:18;15.70;99.90
23729;DHT22;12045;60.214;24.724;2022-09-12T14:09:57;15.70;99.90
23729;DHT22;12045;60.214;24.724;2022-09-12T14:12:39;15.70;99.90
23729;DHT22;12045;60.214;24.724;2022-09-12T14:15:27;15.60;99.90
23729;DHT22;12045;60.214;24.724;2022-09-12T14:17:59;15.50;99.90
23729;DHT22;12045;60.214;24.724;2022-09-12T14:20:35;15.50;99.90
23729;DHT22;12045;60.214;24.724;2022-09-12T14:23:31;15.50;99.90
23729;DHT22;12045;60.214;24.724;2022-09-12T14:26:01;15.40;99.90
23729;DHT22;12045;60.214;24.724;2022-09-12T14:28:29;15.50;99.90
23729;DHT22;12045;60.214;24.724;2022-09-12T14:31:02;15.40;99.90
23729;DHT22;12045;60.214;24.724;2022-09-12T14:33:44;15.50;99.90
23729;DHT22;12045;60.214;24.724;2022-09-12T14:39:36;15.50;99.90
23729;DHT22;12045;60.214;24.724;2022-09-12T14:42:34;15.50;99.90
23729;DHT22;12045;60.214;24.724;2022-09-12T14:45:15;15.40;99.90
23729;DHT22;12045;60.214;24.724;2022-09-12T14:47:48;15.40;99.90
23729;DHT22;12045;60.214;24.724;2022-09-12T14:50:21;15.40;99.90
23729;DHT22;12045;60.214;24.724;2022-09-12T14:53:05;15.40;99.90
23729;DHT22;12045;60.214;24.724;2022-09-12T14:55:40;15.30;99.90
23729;DHT22;12045;60.214;24.724;2022-09-12T14:58:24;15.30;99.90
23729;DHT22;12045;60.214;24.724;2022-09-12T15:01:02;15.20;99.90
23729;DHT22;12045;60.214;24.724;2022-09-12T15:06:27;14.10;99.90
23729;DHT22;12045;60.214;24.724;2022-09-12T15:09:01;15.00;99.90
23729;DHT22;12045;60.214;24.724;2022-09-12T15:11:29;14.90;99.90
23729;DHT22;12045;60.214;24.724;2022-09-12T15:13:57;14.80;99.90
23729;DHT22;12045;60.214;24.724;2022-09-12T15:16:25;14.80;99.90
23729;DHT22;12045;60.214;24.724;2022-09-12T15:18:53;14.70;99.90
23729;DHT22;12045;60.214;24.724;2022-09-12T15:21:21;14.70;99.90
23729;DHT22;12045;60.214;24.724;2022-09-12T15:23:49;14.70;99.90
23729;DHT22;12045;60.214;24.724;2022-09-12T15:26:22;14.70;99.90
23729;DHT22;12045;60.214;24.724;2022-09-12T15:28:50;14.70;99.90
23729;DHT22;12045;60.214;24.724;2022-09-12T15:31:26;14.60;99.90
23729;DHT22;12045;60.214;24.724;2022-09-12T15:33:56;14.60;99.90
23729;DHT22;12045;60.214;24.724;2022-09-12T15:36:25;14.60;99.90
23729;DHT22;12045;60.214;24.724;2022-09-12T15:38:53;14.60;99.90
23729;DHT22;12045;60.214;24.724;2022-09-12T15:41:28;14.50;99.90
23729;DHT22;12045;60.214;24.724;2022-09-12T15:43:57;14.50;99.90
23729;DHT22;12045;60.214;24.724;2022-09-12T15:46:25;14.50;99.90
23729;DHT22;12045;60.214;24.724;2022-09-12T15:48:53;14.50;99.90
23729;DHT22;12045;60.214;24.724;2022-09-12T15:51:21;14.40;99.90
23729;DHT22;12045;60.214;24.724;2022-09-12T15:53:50;14.30;99.90
23729;DHT22;12045;60.214;24.724;2022-09-12T15:56:19;14.30;99.90
23729;DHT22;12045;60.214;24.724;2022-09-12T15:58:48;14.20;99.90
23729;DHT22;12045;60.214;24.724;2022-09-12T16:01:26;14.30;99.90
23729;DHT22;12045;60.214;24.724;2022-09-12T16:03:54;14.30;99.90
23729;DHT22;12045;60.214;24.724;2022-09-12T16:06:22;14.30;99.90
23729;DHT22;12045;60.214;24.724;2022-09-12T16:08:49;14.30;99.90
23729;DHT22;12045;60.214;24.724;2022-09-12T16:11:23;14.30;99.90
23729;DHT22;12045;60.214;24.724;2022-09-12T16:13:52;14.30;99.90
23729;DHT22;12045;60.214;24.724;2022-09-12T16:16:20;14.20;99.90
23729;DHT22;12045;60.214;24.724;2022-09-12T16:18:48;14.20;99.90
23729;DHT22;12045;60.214;24.724;2022-09-12T16:21:16;14.20;99.90
23729;DHT22;12045;60.214;24.724;2022-09-12T16:23:45;14.10;99.90
23729;DHT22;12045;60.214;24.724;2022-09-12T16:26:13;14.10;99.90
23729;DHT22;12045;60.214;24.724;2022-09-12T16:28:42;14.10;99.90
23729;DHT22;12045;60.214;24.724;2022-09-12T16:31:12;14.00;99.90
23729;DHT22;12045;60.214;24.724;2022-09-12T16:33:40;14.00;99.90
23729;DHT22;12045;60.214;24.724;2022-09-12T16:36:13;14.00;99.90
23729;DHT22;12045;60.214;24.724;2022-09-12T16:38:42;13.90;99.90
23729;DHT22;12045;60.214;24.724;2022-09-12T16:41:11;13.90;99.90
23729;DHT22;12045;60.214;24.724;2022-09-12T16:43:38;13.90;99.90
23729;DHT22;12045;60.214;24.724;2022-09-12T16:46:15;13.90;99.90
23729;DHT22;12045;60.214;24.724;2022-09-12T16:48:48;13.90;99.90
23729;DHT22;12045;60.214;24.724;2022-09-12T16:51:24;13.90;99.90
23729;DHT22;12045;60.214;24.724;2022-09-12T16:53:53;13.80;99.90
23729;DHT22;12045;60.214;24.724;2022-09-12T16:56:22;13.70;99.90
23729;DHT22;12045;60.214;24.724;2022-09-12T16:58:50;13.80;99.90
23729;DHT22;12045;60.214;24.724;2022-09-12T17:01:20;13.70;99.90
23729;DHT22;12045;60.214;24.724;2022-09-12T17:03:54;13.70;99.90
23729;DHT22;12045;60.214;24.724;2022-09-12T17:06:23;13.60;99.90
23729;DHT22;12045;60.214;24.724;2022-09-12T17:08:52;13.50;99.90
23729;DHT22;12045;60.214;24.724;2022-09-12T17:11:32;13.40;99.90
23729;DHT22;12045;60.214;24.724;2022-09-12T17:14:02;13.40;99.90
23729;DHT22;12045;60.214;24.724;2022-09-12T17:16:35;13.40;99.90
23729;DHT22;12045;60.214;24.724;2022-09-12T17:19:04;13.40;99.90
23729;DHT22;12045;60.214;24.724;2022-09-12T17:21:32;13.40;99.90
23729;DHT22;12045;60.214;24.724;2022-09-12T17:24:00;13.50;99.90
23729;DHT22;12045;60.214;24.724;2022-09-12T17:26:28;13.50;99.90
23729;DHT22;12045;60.214;24.724;2022-09-12T17:28:56;13.50;99.90
23729;DHT22;12045;60.214;24.724;2022-09-12T17:31:24;13.50;99.90
23729;DHT22;12045;60.214;24.724;2022-09-12T17:33:58;13.40;99.90
23729;DHT22;12045;60.214;24.724;2022-09-12T17:36:26;13.40;99.90
23729;DHT22;12045;60.214;24.724;2022-09-12T17:38:54;13.50;99.90
23729;DHT22;12045;60.214;24.724;2022-09-12T17:41:24;13.40;99.90
23729;DHT22;12045;60.214;24.724;2022-09-12T17:43:54;13.40;99.90
23729;DHT22;12045;60.214;24.724;2022-09-12T17:46:32;13.40;99.90
23729;DHT22;12045;60.214;24.724;2022-09-12T17:49:10;13.40;99.90
23729;DHT22;12045;60.214;24.724;2022-09-12T17:51:38;13.40;99.90
23729;DHT22;12045;60.214;24.724;2022-09-12T17:54:10;13.40;99.90
23729;DHT22;12045;60.214;24.724;2022-09-12T17:56:38;13.30;99.90
23729;DHT22;12045;60.214;24.724;2022-09-12T17:59:08;13.30;99.90
23729;DHT22;12045;60.214;24.724;2022-09-12T18:01:37;13.30;99.90
23729;DHT22;12045;60.214;24.724;2022-09-12T18:04:23;13.20;99.90
23729;DHT22;12045;60.214;24.724;2022-09-12T18:06:51;13.10;99.90
23729;DHT22;12045;60.214;24.724;2022-09-12T18:09:21;12.90;99.90
23729;DHT22;12045;60.214;24.724;2022-09-12T18:11:50;12.80;99.90
23729;DHT22;12045;60.214;24.724;2022-09-12T18:14:20;12.80;99.90
23729;DHT22;12045;60.214;24.724;2022-09-12T18:16:48;12.80;99.90
23729;DHT22;12045;60.214;24.724;2022-09-12T18:19:16;12.70;99.90
23729;DHT22;12045;60.214;24.724;2022-09-12T18:21:44;12.70;99.90
23729;DHT22;12045;60.214;24.724;2022-09-12T18:24:12;12.60;99.90
23729;DHT22;12045;60.214;24.724;2022-09-12T18:26:40;12.50;99.90
23729;DHT22;12045;60.214;24.724;2022-09-12T18:29:10;12.40;99.90
23729;DHT22;12045;60.214;24.724;2022-09-12T18:31:38;12.50;99.90
23729;DHT22;12045;60.214;24.724;2022-09-12T18:34:06;12.40;99.90
23729;DHT22;12045;60.214;24.724;2022-09-12T18:36:43;12.30;99.90
23729;DHT22;12045;60.214;24.724;2022-09-12T18:39:12;12.30;99.90
23729;DHT22;12045;60.214;24.724;2022-09-12T18:41:40;12.30;99.90
23729;DHT22;12045;60.214;24.724;2022-09-12T18:44:11;12.40;99.90
23729;DHT22;12045;60.214;24.724;2022-09-12T18:46:39;12.40;99.90
23729;DHT22;12045;60.214;24.724;2022-09-12T18:49:06;12.40;99.90
23729;DHT22;12045;60.214;24.724;2022-09-12T18:51:36;12.40;99.90
23729;DHT22;12045;60.214;24.724;2022-09-12T18:54:06;12.50;99.90
23729;DHT22;12045;60.214;24.724;2022-09-12T18:56:36;12.40;99.90
23729;DHT22;12045;60.214;24.724;2022-09-12T18:59:05;12.50;99.90
23729;DHT22;12045;60.214;24.724;2022-09-12T19:01:35;12.50;99.90
23729;DHT22;12045;60.214;24.724;2022-09-12T19:04:05;12.50;99.90
23729;DHT22;12045;60.214;24.724;2022-09-12T19:06:36;12.40;99.90
23729;DHT22;12045;60.214;24.724;2022-09-12T19:09:05;12.40;99.90
23729;DHT22;12045;60.214;24.724;2022-09-12T19:11:36;12.40;99.90
23729;DHT22;12045;60.214;24.724;2022-09-12T19:14:05;12.40;99.90
23729;DHT22;12045;60.214;24.724;2022-09-12T19:16:34;12.50;99.90
23729;DHT22;12045;60.214;24.724;2022-09-12T19:19:02;12.50;99.90
23729;DHT22;12045;60.214;24.724;2022-09-12T19:21:31;12.00;99.90
23729;DHT22;12045;60.214;24.724;2022-09-12T19:24:05;12.40;99.90
23729;DHT22;12045;60.214;24.724;2022-09-12T19:26:33;12.40;99.90
23729;DHT22;12045;60.214;24.724;2022-09-12T19:29:00;12.40;99.90
23729;DHT22;12045;60.214;24.724;2022-09-12T19:31:30;12.40;99.90
23729;DHT22;12045;60.214;24.724;2022-09-12T19:34:02;12.60;99.90
23729;DHT22;12045;60.214;24.724;2022-09-12T19:36:30;12.50;99.90
23729;DHT22;12045;60.214;24.724;2022-09-12T19:39:17;12.50;99.90
23729;DHT22;12045;60.214;24.724;2022-09-12T19:41:46;12.50;99.90
23729;DHT22;12045;60.214;24.724;2022-09-12T19:44:14;12.50;99.90